Terminal Aerodrome Forecast
Issued by NWS Sterling, VA

Current Version | Previous Version | Graphics & Text | Print | Product List | Glossary On
Versions: 1 2 3 4 5 6 7 8 9 10 11 12 13 14 15 16 17 18 19 20 21 22 23 24 25 26 27 28 29 30
000
FTUS41 KLWX 190520
TAFIAD
TAF
KIAD 190520Z 1906/2012 VRB04KT P6SM SCT050
      TEMPO 1906/1907 6SM -SHRA OVC050
     FM190700 32008KT P6SM FEW050 SCT200
     FM191800 28008KT P6SM FEW050 FEW200
     FM200000 VRB04KT P6SM BKN050
     FM200500 VRB04KT P6SM SCT050=

USA.gov is the U.S. government's official web portal to all federal, state and local government web resources and services.